Pagina principale
METAR-TAF:

METAR-TAF

Aeroporti :

Trevico, Italia

latitudine: 41-03N, longitudine: 015-14E, altezza: 1085 m

Osservazione

Il bollettino è stato emesso 9 ore e 59 minuti fa, alle 17:55 UTC
Vento 18 kt da ovest/nord-ovest
Temperature 5°C
Umidità 70%
Pressione 1024 hPa
Visibilità 10 km o più
Nubi sparse ad un'altezza di 1400 ft

METAR: LIRT 291755Z 29018KT 9999 SCT014 05/M00 Q1024 RMK SCT MON INVIS VAL INVIS VIS MIN 9999

Ora: 05:54 (03:54 UTC)


TAF: mancante

Osservazioni e previsioni meteorologiche di più di 4000 aeroporti (messaggi METAR e TAF).

Le stazioni disponibili sono rappresentate dai dischi gialli e rossi sulla carta.

Puntare il mouse per vedere il nome della stazione.

Clicca sopra per visualizzare le osservazioni e previsioni meteorologiche.

Per cambiare la mappa : fare clic sui pulsanti verdi con una croce nera per ingrandire, il pulsante verde con un trattino per diminuire, o sulla freccia verde per le mappe adiacenti.


METAR-TAF: